createdAt,value
2023-04-19T00:03:24.788Z,77.79
2023-04-19T00:07:07.578Z,77.91
2023-04-19T00:10:50.217Z,78.04
2023-04-19T00:14:34.150Z,78.14
2023-04-19T00:18:16.806Z,78.24
2023-04-19T00:21:59.425Z,78.38
2023-04-19T00:25:42.046Z,78.52
2023-04-19T00:29:24.840Z,78.57
2023-04-19T00:33:12.828Z,77.15
2023-04-19T00:36:55.744Z,77.47
2023-04-19T00:40:38.436Z,77.72
2023-04-19T00:44:21.074Z,77.77
2023-04-19T00:48:03.913Z,78.16
2023-04-19T00:51:48.224Z,78.32
2023-04-19T00:55:30.914Z,78.06
2023-04-19T00:59:14.223Z,77.84
2023-04-19T01:02:56.987Z,77.75
2023-04-19T01:06:40.346Z,78.16
2023-04-19T01:10:24.417Z,78.05
2023-04-19T01:14:07.061Z,78.49
2023-04-19T01:17:49.755Z,78.38
2023-04-19T01:21:32.543Z,78.46
2023-04-19T01:25:16.808Z,78.74
2023-04-19T01:28:59.414Z,78.41
2023-04-19T01:32:42.144Z,78.15
2023-04-19T01:36:24.803Z,78.35
2023-04-19T01:40:08.346Z,78.76
2023-04-19T01:43:52.327Z,78.93
2023-04-19T01:47:35.045Z,78.58
2023-04-19T01:51:18.111Z,78.57
2023-04-19T01:55:00.839Z,79.04
2023-04-19T01:58:43.454Z,78.68
2023-04-19T02:02:27.577Z,79.16
2023-04-19T02:06:12.871Z,79.24
2023-04-19T02:09:55.503Z,79.16
2023-04-19T02:13:38.565Z,79.92
2023-04-19T02:17:21.123Z,80.05
2023-04-19T02:21:05.417Z,81.27
2023-04-19T02:24:49.238Z,81.74
2023-04-19T02:28:31.905Z,81.69
2023-04-19T02:32:14.562Z,82.08
2023-04-19T02:35:57.165Z,82.73
2023-04-19T02:39:42.540Z,82.58
2023-04-19T02:43:25.209Z,83.23
2023-04-19T02:47:08.137Z,84.07
2023-04-19T02:50:50.822Z,84.37
2023-04-19T02:54:33.868Z,84.76
2023-04-19T02:58:18.119Z,85.23
2023-04-19T03:02:00.963Z,85.09
2023-04-19T03:05:43.673Z,85.10
2023-04-19T03:09:26.439Z,85.57
2023-04-19T03:13:09.199Z,86.40
2023-04-19T03:16:54.395Z,86.80
2023-04-19T03:20:37.166Z,86.24
2023-04-19T03:24:20.142Z,86.60
2023-04-19T03:28:02.868Z,85.82
2023-04-19T03:31:45.600Z,86.29
2023-04-19T03:35:30.920Z,86.56
2023-04-19T03:39:13.539Z,86.27
2023-04-19T03:42:56.208Z,86.87
2023-04-19T03:46:38.951Z,88.12
2023-04-19T03:50:21.602Z,88.71
2023-04-19T03:54:05.724Z,88.13
2023-04-19T03:57:48.323Z,87.81
2023-04-19T04:01:30.952Z,86.79
2023-04-19T04:05:13.677Z,86.10
2023-04-19T04:08:56.368Z,86.97
2023-04-19T04:12:40.377Z,87.69
2023-04-19T04:16:23.170Z,87.09
2023-04-19T04:20:07.766Z,85.90
2023-04-19T04:23:50.352Z,85.62
2023-04-19T04:27:33.247Z,85.97
2023-04-19T04:31:18.973Z,85.80
2023-04-19T04:35:01.664Z,86.43
2023-04-19T04:38:44.338Z,86.92
2023-04-19T04:42:27.601Z,86.88
2023-04-19T04:46:10.393Z,87.13
2023-04-19T04:49:54.431Z,85.95
2023-04-19T04:53:37.067Z,86.67
2023-04-19T04:57:19.707Z,87.22
2023-04-19T05:01:02.359Z,85.97
2023-04-19T05:04:45.499Z,86.15
2023-04-19T05:08:29.680Z,86.61
2023-04-19T05:12:12.603Z,86.93
2023-04-19T05:15:55.453Z,87.23
2023-04-19T05:19:38.109Z,86.86
2023-04-19T05:23:21.272Z,86.59
2023-04-19T05:27:05.364Z,87.26
2023-04-19T05:30:48.036Z,85.96
2023-04-19T05:34:30.632Z,87.14
2023-04-19T05:38:13.247Z,87.17
2023-04-19T05:41:55.966Z,87.47
2023-04-19T05:45:40.238Z,85.77
2023-04-19T05:49:22.891Z,84.66
2023-04-19T05:53:08.515Z,84.00
2023-04-19T05:56:51.220Z,85.48
2023-04-19T06:00:33.868Z,85.64
2023-04-19T06:04:18.323Z,85.57
2023-04-19T06:08:02.809Z,85.67
2023-04-19T06:11:50.962Z,84.47
2023-04-19T06:15:34.426Z,84.62
2023-04-19T06:19:18.438Z,85.36
2023-04-19T06:23:01.059Z,86.32
2023-04-19T06:26:43.641Z,84.84
2023-04-19T06:30:26.595Z,87.45
2023-04-19T06:34:10.312Z,87.17
2023-04-19T06:37:54.429Z,86.72
2023-04-19T06:41:37.132Z,86.24
2023-04-19T06:45:20.015Z,87.95
2023-04-19T06:49:02.791Z,88.00
2023-04-19T06:52:45.426Z,85.49
2023-04-19T06:56:45.391Z,84.31
2023-04-19T07:00:28.151Z,83.70
2023-04-19T07:04:11.418Z,81.51
2023-04-19T07:07:54.171Z,81.24
2023-04-19T07:11:36.931Z,81.05
2023-04-19T07:15:21.230Z,81.89
2023-04-19T07:19:04.242Z,82.50
2023-04-19T07:22:46.869Z,82.26
2023-04-19T07:26:29.596Z,82.14
2023-04-19T07:30:12.571Z,80.99
2023-04-19T07:33:56.588Z,81.12
2023-04-19T07:37:39.232Z,80.63
2023-04-19T07:41:22.148Z,80.04
2023-04-19T07:45:05.821Z,81.11
2023-04-19T07:48:48.607Z,80.29
2023-04-19T07:52:32.735Z,79.48
2023-04-19T07:56:15.571Z,79.97
2023-04-19T07:59:59.296Z,80.33
2023-04-19T08:03:42.182Z,78.46
2023-04-19T08:07:26.118Z,78.98
2023-04-19T08:11:10.136Z,80.40
2023-04-19T08:15:02.695Z,78.18
2023-04-19T08:18:53.799Z,79.08
2023-04-19T08:22:36.449Z,78.24
2023-04-19T08:26:20.487Z,76.06
2023-04-19T08:30:03.423Z,75.35
2023-04-19T08:33:46.066Z,75.59
2023-04-19T08:37:28.835Z,74.93
2023-04-19T08:41:13.560Z,73.46
2023-04-19T08:45:23.421Z,75.47
2023-04-19T08:49:01.538Z,74.84
2023-04-19T08:52:54.268Z,73.87
2023-04-19T08:56:39.970Z,73.22
2023-04-19T09:00:24.531Z,74.34
2023-04-19T09:07:54.414Z,73.67
2023-04-19T09:11:38.299Z,73.01
2023-04-19T09:15:38.207Z,72.61
2023-04-19T09:19:24.674Z,72.74
2023-04-19T09:23:09.136Z,72.47
2023-04-19T09:27:00.443Z,72.46
2023-04-19T09:31:02.305Z,72.99
2023-04-19T09:34:54.212Z,71.27
2023-04-19T09:38:48.250Z,70.53
2023-04-19T09:43:02.654Z,70.62
2023-04-19T09:46:53.549Z,69.71
2023-04-19T09:50:46.814Z,69.69
2023-04-19T09:54:36.701Z,69.65
2023-04-19T09:58:19.935Z,69.48
2023-04-19T10:02:04.193Z,70.15
2023-04-19T10:05:47.238Z,70.07
2023-04-19T10:09:30.037Z,68.09
2023-04-19T10:17:00.666Z,67.87
2023-04-19T10:21:01.030Z,67.52
2023-04-19T10:25:09.685Z,67.97
2023-04-19T10:28:52.385Z,69.09
2023-04-19T10:32:39.448Z,67.69
2023-04-19T10:36:23.595Z,66.92
2023-04-19T10:40:07.798Z,66.58
2023-04-19T10:44:10.626Z,66.23
2023-04-19T10:47:53.506Z,66.12
2023-04-19T10:51:38.933Z,67.58
2023-04-19T10:55:22.206Z,67.15
2023-04-19T10:59:22.913Z,67.88
2023-04-19T11:03:39.603Z,71.81
2023-04-19T11:07:23.782Z,71.57
2023-04-19T11:11:06.501Z,68.87
2023-04-19T11:14:50.482Z,67.72
2023-04-19T11:18:33.155Z,67.85
2023-04-19T11:22:15.839Z,68.79
2023-04-19T11:25:59.847Z,69.50
2023-04-19T11:29:42.537Z,69.60
2023-04-19T11:33:25.778Z,71.19
2023-04-19T11:37:08.419Z,70.99
2023-04-19T11:41:01.151Z,72.48
2023-04-19T11:44:50.058Z,72.58
2023-04-19T11:48:32.923Z,72.22
2023-04-19T11:52:21.774Z,71.06
2023-04-19T11:56:07.506Z,72.17
2023-04-19T12:00:05.514Z,73.86
2023-04-19T12:03:49.869Z,74.21
2023-04-19T12:07:32.639Z,73.91
2023-04-19T12:11:18.755Z,75.46
2023-04-19T12:15:01.386Z,76.32
2023-04-19T12:18:49.037Z,76.81
2023-04-19T12:22:31.833Z,78.50
2023-04-19T12:26:15.932Z,78.40
2023-04-19T12:29:58.635Z,81.04
2023-04-19T12:33:41.329Z,81.48
2023-04-19T12:37:24.475Z,83.03
2023-04-19T12:41:07.176Z,84.87
2023-04-19T12:44:51.136Z,80.16
2023-04-19T12:48:33.786Z,78.74
2023-04-19T12:52:16.414Z,77.68
2023-04-19T12:55:59.406Z,76.08
2023-04-19T12:59:42.027Z,78.33
2023-04-19T13:03:26.199Z,79.80
2023-04-19T13:07:09.022Z,81.51
2023-04-19T13:10:51.766Z,80.26
2023-04-19T13:14:34.648Z,81.99
2023-04-19T13:18:17.278Z,84.76
2023-04-19T13:22:01.243Z,84.49
2023-04-19T13:25:43.868Z,84.12
2023-04-19T13:29:26.484Z,86.87
2023-04-19T13:33:09.330Z,86.66
2023-04-19T13:36:51.985Z,87.21
2023-04-19T13:40:35.999Z,87.24
2023-04-19T13:44:18.980Z,85.82
2023-04-19T13:48:01.871Z,82.93
2023-04-19T13:51:50.230Z,82.40
2023-04-19T13:55:33.974Z,81.93
2023-04-19T13:59:17.966Z,83.31
2023-04-19T14:03:00.738Z,84.49
2023-04-19T14:06:44.379Z,83.75
2023-04-19T14:10:27.085Z,80.79
2023-04-19T14:14:09.721Z,78.73
2023-04-19T14:17:53.738Z,78.80
2023-04-19T14:21:36.401Z,76.64
2023-04-19T14:25:19.023Z,78.08
2023-04-19T14:29:01.692Z,79.85
2023-04-19T14:32:44.702Z,81.28
2023-04-19T14:36:28.861Z,82.34
2023-04-19T14:40:12.225Z,80.85
2023-04-19T14:43:56.138Z,80.90
2023-04-19T14:47:38.785Z,80.33
2023-04-19T14:51:21.466Z,78.75
2023-04-19T14:55:06.199Z,78.05
2023-04-19T14:58:48.873Z,77.62
2023-04-19T15:02:31.692Z,77.04
2023-04-19T15:06:14.521Z,74.55
2023-04-19T15:09:57.133Z,75.84
2023-04-19T15:13:42.783Z,77.07
2023-04-19T15:17:25.463Z,77.39
2023-04-19T15:21:08.127Z,76.06
2023-04-19T15:24:50.845Z,76.47
2023-04-19T15:28:36.019Z,75.68
2023-04-19T15:32:20.373Z,76.13
2023-04-19T15:36:03.692Z,76.57
2023-04-19T15:39:49.472Z,77.24
2023-04-19T15:43:32.110Z,77.40
2023-04-19T15:47:14.763Z,76.55
2023-04-19T15:50:59.005Z,76.27
2023-04-19T15:54:44.524Z,76.82
2023-04-19T15:58:27.172Z,76.74
2023-04-19T16:02:09.916Z,75.87
2023-04-19T16:05:52.617Z,76.58
2023-04-19T16:09:36.618Z,77.47
2023-04-19T16:13:19.264Z,80.47
2023-04-19T16:17:01.873Z,78.53
2023-04-19T16:20:44.533Z,77.43
2023-04-19T16:24:27.151Z,77.15
2023-04-19T16:28:14.223Z,75.34
2023-04-19T16:31:56.855Z,75.94
2023-04-19T16:35:39.555Z,76.23
2023-04-19T16:39:22.209Z,76.07
2023-04-19T16:43:06.214Z,75.98
2023-04-19T16:46:50.190Z,76.36
2023-04-19T16:50:32.849Z,76.24
2023-04-19T16:54:16.518Z,75.23
2023-04-19T16:57:59.126Z,75.22
2023-04-19T17:01:41.802Z,75.00
2023-04-19T17:05:25.932Z,75.79
2023-04-19T17:09:09.072Z,75.04
2023-04-19T17:12:51.700Z,75.23
2023-04-19T17:16:34.327Z,75.22
2023-04-19T17:20:16.957Z,75.14
2023-04-19T17:24:00.916Z,74.98
2023-04-19T17:27:43.728Z,74.39
2023-04-19T17:31:26.683Z,74.49
2023-04-19T17:35:10.042Z,74.98
2023-04-19T17:38:52.663Z,75.35
2023-04-19T17:42:36.688Z,75.32
2023-04-19T17:46:20.877Z,74.55
2023-04-19T17:50:07.965Z,75.07
2023-04-19T17:53:50.563Z,76.19
2023-04-19T17:57:34.203Z,75.78
2023-04-19T18:01:18.251Z,75.98
2023-04-19T18:05:00.944Z,76.16
2023-04-19T18:08:45.846Z,76.71
2023-04-19T18:12:28.573Z,76.24
2023-04-19T18:16:11.276Z,76.79
2023-04-19T18:19:55.297Z,76.82
2023-04-19T18:23:38.311Z,77.64
2023-04-19T18:27:20.914Z,77.56
2023-04-19T18:31:03.575Z,77.49
2023-04-19T18:34:47.351Z,77.97
2023-04-19T18:38:31.418Z,77.83
2023-04-19T18:42:14.101Z,77.93
2023-04-19T18:45:57.287Z,78.12
2023-04-19T18:49:40.377Z,78.20
2023-04-19T18:53:23.058Z,78.21
2023-04-19T18:57:22.669Z,77.74
2023-04-19T19:01:06.113Z,78.47
2023-04-19T19:04:57.011Z,78.06
2023-04-19T19:08:41.161Z,77.94
2023-04-19T19:12:27.950Z,77.29
2023-04-19T19:16:11.056Z,77.56
2023-04-19T19:19:54.043Z,76.32
2023-04-19T19:23:42.169Z,76.89
2023-04-19T19:27:26.906Z,77.59
2023-04-19T19:31:09.898Z,77.50
2023-04-19T19:34:56.349Z,77.47
2023-04-19T19:38:41.694Z,76.99
2023-04-19T19:42:24.849Z,77.48
2023-04-19T19:46:10.692Z,77.58
2023-04-19T19:50:43.707Z,77.11
2023-04-19T19:53:57.650Z,77.74
2023-04-19T20:01:28.108Z,78.03
2023-04-19T20:05:11.954Z,77.88
2023-04-19T20:08:57.250Z,78.86
2023-04-19T20:12:42.800Z,80.07
2023-04-19T20:16:27.212Z,80.06
2023-04-19T20:20:11.258Z,81.35
2023-04-19T20:23:54.046Z,83.28
2023-04-19T20:27:36.687Z,84.70
2023-04-19T20:31:19.458Z,85.48
2023-04-19T20:35:08.243Z,84.18
2023-04-19T20:38:51.195Z,83.65
2023-04-19T20:42:33.864Z,83.28
2023-04-19T20:46:16.740Z,81.63
2023-04-19T20:49:59.423Z,81.55
2023-04-19T20:53:43.469Z,81.25
2023-04-19T20:57:26.135Z,78.56
2023-04-19T21:01:11.715Z,78.10
2023-04-19T21:04:54.701Z,78.58
2023-04-19T21:08:37.340Z,78.83
2023-04-19T21:12:21.332Z,79.25
2023-04-19T21:16:04.436Z,80.25
2023-04-19T21:19:47.303Z,81.40
2023-04-19T21:23:30.025Z,82.10
2023-04-19T21:27:12.667Z,81.76
2023-04-19T21:30:57.595Z,81.51
2023-04-19T21:34:40.301Z,81.06
2023-04-19T21:38:23.043Z,81.23
2023-04-19T21:42:05.718Z,81.88
2023-04-19T21:45:48.336Z,81.74
2023-04-19T21:49:32.459Z,81.76
2023-04-19T21:53:15.198Z,81.58
2023-04-19T21:56:58.712Z,82.06
2023-04-19T22:00:41.544Z,82.58
2023-04-19T22:04:24.852Z,82.07
2023-04-19T22:08:08.894Z,81.20
2023-04-19T22:11:52.843Z,81.06
2023-04-19T22:15:36.351Z,81.18
2023-04-19T22:19:19.112Z,81.13
2023-04-19T22:23:01.930Z,80.84
2023-04-19T22:26:46.050Z,81.30
2023-04-19T22:30:28.781Z,81.22
2023-04-19T22:34:11.412Z,81.55
2023-04-19T22:37:54.278Z,81.81
2023-04-19T22:41:36.921Z,81.50
2023-04-19T22:45:21.025Z,80.34
2023-04-19T22:49:03.755Z,79.67
2023-04-19T22:52:46.425Z,79.49
2023-04-19T22:56:29.635Z,78.37
2023-04-19T23:00:13.183Z,79.38
2023-04-19T23:03:57.232Z,79.76
2023-04-19T23:07:41.863Z,79.92
2023-04-19T23:11:25.141Z,81.18
2023-04-19T23:15:10.944Z,81.80
2023-04-19T23:18:54.336Z,82.37
2023-04-19T23:22:38.915Z,82.73
2023-04-19T23:26:21.573Z,82.38
2023-04-19T23:30:05.071Z,81.62
2023-04-19T23:33:47.699Z,81.17
2023-04-19T23:37:30.593Z,81.37
2023-04-19T23:41:14.640Z,81.42
2023-04-19T23:44:57.394Z,81.58
2023-04-19T23:48:40.157Z,81.72
2023-04-19T23:52:23.081Z,81.58
2023-04-19T23:56:06.544Z,81.46
2023-04-19T23:59:51.337Z,81.12
